This is the latest recevied weather packets stored in our database for station/object 1NW106. If no packets are shown the sender has not sent any weather packets the latest 1 day(s).
| Time | Temp. | Humidity | Pressure | Rain* | Wind** | Luminosity | Snow |
|---|---|---|---|---|---|---|---|
| 1788607922 | 27.22° C | 99% | 1004.8 hPa | 1.52 mm | - | - | - |
| 1788607322 | 27.22° C | 99% | 1004.6 hPa | 1.52 mm | - | - | - |
| 1788606722 | 27.22° C | 99% | 1004.8 hPa | 1.52 mm | - | - | - |
| 1788606122 | 27.22° C | 99% | 1004.8 hPa | 1.52 mm | - | - | - |
| 1788605522 | 27.22° C | 99% | 1004.9 hPa | 1.52 mm | - | - | - |
| 1788604922 | 27.78° C | 99% | 1005.1 hPa | 1.52 mm | - | - | - |
| 1788604322 | 27.78° C | 99% | 1004.9 hPa | 1.52 mm | - | - | - |
| 1788603722 | 27.78° C | 99% | 1005.5 hPa | 1.52 mm | - | - | - |
| 1788603123 | 28.33° C | 99% | 1005.5 hPa | 1.52 mm | - | - | - |
| 1788602522 | 27.78° C | 99% | 1005.3 hPa | 1.52 mm | - | - | - |
| 1788601922 | 27.78° C | 99% | 1005.5 hPa | 1.52 mm | - | - | - |
| 1788601322 | 28.33° C | 99% | 1005.6 hPa | 1.52 mm | - | - | - |
| 1788600722 | 28.33° C | 97% | 1005.9 hPa | 1.52 mm | - | - | - |
| 1788600122 | 28.33° C | 94% | 1006.4 hPa | 1.52 mm | - | - | - |
| 1788599522 | 28.89° C | 92% | 1006.7 hPa | 1.52 mm | - | - | - |
| 1788598922 | 29.44° C | 91% | 1006.9 hPa | 1.52 mm | - | - | - |
| 1788598322 | 29.44° C | 90% | 1007 hPa | 1.52 mm | - | - | - |
| 1788597722 | 30° C | 89% | 1007.2 hPa | 1.52 mm | - | - | - |
| 1788597122 | 29.44° C | 89% | 1007.4 hPa | 1.52 mm | - | - | - |
| 1788596522 | 29.44° C | 92% | 1007.1 hPa | 1.52 mm | - | - | - |
| 1788595922 | 28.89° C | 91% | 1007.1 hPa | 1.52 mm | - | - | - |
| 1788595322 | 29.44° C | 89% | 1007.7 hPa | 1.52 mm | - | - | - |
| 1788594722 | 29.44° C | 88% | 1007.9 hPa | 1.52 mm | - | - | - |
| 1788594122 | 30° C | 84% | 1008.2 hPa | 1.52 mm | - | - | - |
| 1788593522 | 30° C | 86% | 1008.3 hPa | 1.52 mm | - | - | - |
* Rain latest hour (hover to see other rain measurements)
** Current wind speed in m/s (hover to see current wind gust speed)